Time;durP1;ratioP1;P1;durP2;ratioP2;P2;SDS_P1;SDS_P2;PMS_P1;PMS_P2;Temp;Humidity;BMP_temperature;BMP_pressure;BME280_temperature;BME280_humidity;BME280_pressure;Samples;Min_cycle;Max_cycle;Signal;HPM_P1;HPM_P2
2022/09/26 00:01:13;;;;;;;4.43;1.00;;;15.00;99.90;;;;;;5092077;28;20171;-57
2022/09/26 00:03:41;;;;;;;5.95;1.20;;;15.00;99.90;;;;;;5092043;28;20182;-57
2022/09/26 00:06:07;;;;;;;3.35;0.95;;;14.70;99.90;;;;;;5091878;28;20164;-57
2022/09/26 00:08:35;;;;;;;4.97;1.15;;;15.00;99.90;;;;;;5091952;28;20657;-57
2022/09/26 00:11:02;;;;;;;2.05;0.75;;;14.80;99.90;;;;;;5091822;28;20213;-57
2022/09/26 00:13:31;;;;;;;4.53;1.25;;;14.80;99.90;;;;;;5091737;28;20175;-57
2022/09/26 00:15:57;;;;;;;6.28;1.33;;;14.60;99.90;;;;;;5091684;28;20187;-57
2022/09/26 00:18:24;;;;;;;3.40;1.10;;;14.60;99.90;;;;;;5091420;28;20693;-57
2022/09/26 00:20:50;;;;;;;9.13;1.25;;;14.50;99.90;;;;;;5091506;28;20191;-57
2022/09/26 00:23:16;;;;;;;3.33;0.93;;;14.40;99.90;;;;;;5091391;28;20178;-57
2022/09/26 00:25:50;;;;;;;6.50;1.20;;;14.30;99.90;;;;;;5091343;28;20232;-58
2022/09/26 00:28:17;;;;;;;7.43;1.20;;;14.20;99.90;;;;;;5091317;28;20233;-57
2022/09/26 00:30:46;;;;;;;10.18;1.45;;;14.20;99.90;;;;;;5090176;28;20175;-57
2022/09/26 00:33:11;;;;;;;11.52;1.33;;;14.20;99.90;;;;;;5091339;28;20176;-57
2022/09/26 00:35:38;;;;;;;9.80;2.65;;;14.20;99.90;;;;;;5091160;28;20638;-58
2022/09/26 00:38:04;;;;;;;7.15;1.67;;;14.10;99.90;;;;;;5090795;28;20231;-57
2022/09/26 00:40:30;;;;;;;7.15;1.70;;;14.10;99.90;;;;;;5091139;28;20229;-57
2022/09/26 00:42:57;;;;;;;13.17;1.57;;;14.10;99.90;;;;;;5091137;28;20221;-58
2022/09/26 00:45:32;;;;;;;12.57;1.73;;;14.10;99.90;;;;;;5091031;28;20443;-57
2022/09/26 00:48:05;;;;;;;11.50;1.73;;;14.10;99.90;;;;;;5091152;28;20652;-58
2022/09/26 00:50:35;;;;;;;15.57;2.07;;;14.10;99.90;;;;;;5091055;28;20180;-58
2022/09/26 00:53:11;;;;;;;13.88;1.60;;;14.10;99.90;;;;;;5091207;28;20381;-57
2022/09/26 00:55:41;;;;;;;11.90;1.80;;;14.10;99.90;;;;;;5091186;28;20207;-57
2022/09/26 00:58:30;;;;;;;11.13;1.80;;;14.10;99.90;;;;;;5091010;28;20204;-57
2022/09/26 01:00:57;;;;;;;10.67;1.73;;;14.10;99.90;;;;;;5090989;28;20250;-57
2022/09/26 01:03:24;;;;;;;11.47;1.53;;;14.10;99.90;;;;;;5091250;28;20176;-57
2022/09/26 01:05:50;;;;;;;10.13;1.58;;;14.30;99.90;;;;;;5106521;28;20518;-57
2022/09/26 01:08:21;;;;;;;6.47;1.58;;;14.30;99.90;;;;;;5091004;28;20187;-57
2022/09/26 01:10:46;;;;;;;12.30;2.00;;;14.30;99.90;;;;;;5092751;28;20186;-57
2022/09/26 01:13:12;;;;;;;17.13;1.77;;;14.30;99.90;;;;;;5093324;28;20531;-57
2022/09/26 01:15:38;;;;;;;8.30;1.60;;;14.30;99.90;;;;;;5085815;28;20172;-57
2022/09/26 01:18:06;;;;;;;17.67;2.22;;;14.30;99.90;;;;;;5074748;28;20204;-57
2022/09/26 01:21:19;;;;;;;16.33;1.83;;;14.40;99.90;;;;;;5086844;28;20172;-58
2022/09/26 01:23:47;;;;;;;15.35;2.00;;;14.30;99.90;;;;;;5072467;28;20200;-57
2022/09/26 01:26:25;;;;;;;14.00;1.93;;;14.30;99.90;;;;;;5092285;28;20263;-58
2022/09/26 01:29:27;;;;;;;10.02;2.42;;;14.30;99.90;;;;;;5094779;28;20168;-58
2022/09/26 01:35:22;;;;;;;9.67;1.67;;;14.20;99.90;;;;;;5074642;28;20310;-58
2022/09/26 01:38:02;;;;;;;9.87;1.60;;;14.30;99.90;;;;;;5074107;28;20639;-58
2022/09/26 01:41:09;;;;;;;17.17;1.88;;;14.30;99.90;;;;;;5074194;28;20172;-58
2022/09/26 01:43:44;;;;;;;12.10;1.70;;;14.50;99.90;;;;;;5074280;28;20537;-58
2022/09/26 01:46:34;;;;;;;13.88;1.95;;;14.30;99.90;;;;;;5074163;28;20172;-58
2022/09/26 01:49:19;;;;;;;5.47;1.20;;;14.40;99.90;;;;;;5074011;28;20172;-58
2022/09/26 01:51:47;;;;;;;16.23;1.95;;;14.30;99.90;;;;;;5074152;28;20234;-57
2022/09/26 01:54:18;;;;;;;10.63;1.90;;;14.30;99.90;;;;;;5074080;28;20185;-58
2022/09/26 01:56:47;;;;;;;10.13;1.70;;;14.30;99.90;;;;;;5074017;28;20196;-57
2022/09/26 01:59:16;;;;;;;11.10;1.60;;;14.20;99.90;;;;;;5073963;28;20215;-58
2022/09/26 02:01:45;;;;;;;15.27;2.35;;;14.30;99.90;;;;;;5073870;28;20169;-58
2022/09/26 02:04:20;;;;;;;11.20;1.90;;;14.20;99.90;;;;;;5074132;28;20173;-58
2022/09/26 02:06:56;;;;;;;14.45;2.58;;;14.20;99.90;;;;;;5073994;28;20262;-57
2022/09/26 02:09:35;;;;;;;15.68;2.60;;;14.10;99.90;;;;;;5073736;28;20180;-57
2022/09/26 02:12:04;;;;;;;20.63;2.30;;;14.10;99.90;;;;;;5073704;28;20173;-58
2022/09/26 02:14:36;;;;;;;9.53;2.57;;;13.90;99.90;;;;;;5073733;28;20169;-58
2022/09/26 02:17:17;;;;;;;10.48;2.20;;;14.00;99.90;;;;;;5073965;28;20705;-58
2022/09/26 02:19:50;;;;;;;13.17;2.00;;;14.10;99.90;;;;;;5073551;28;20212;-58
2022/09/26 02:22:17;;;;;;;15.53;2.57;;;14.10;99.90;;;;;;5072730;28;20172;-58
2022/09/26 02:24:43;;;;;;;12.48;2.50;;;14.10;99.90;;;;;;5073638;28;20183;-58
2022/09/26 02:27:09;;;;;;;14.60;2.60;;;14.10;99.90;;;;;;5073379;28;20176;-58
2022/09/26 02:29:34;;;;;;;13.73;2.60;;;14.40;99.90;;;;;;5073750;28;20547;-58
2022/09/26 02:32:05;;;;;;;10.80;2.50;;;14.10;99.90;;;;;;5073787;28;20168;-58
2022/09/26 02:34:30;;;;;;;10.32;2.13;;;14.10;99.90;;;;;;5073276;28;20180;-58
2022/09/26 02:36:57;;;;;;;7.27;1.57;;;14.20;99.90;;;;;;5073134;28;20232;-58
2022/09/26 02:39:23;;;;;;;10.90;1.93;;;14.10;99.90;;;;;;5073049;28;20223;-58
2022/09/26 02:42:27;;;;;;;12.73;2.10;;;14.20;99.90;;;;;;5073102;28;20173;-58
2022/09/26 02:45:20;;;;;;;8.63;1.75;;;14.20;99.90;;;;;;5073099;28;20191;-58
2022/09/26 02:48:12;;;;;;;8.13;1.60;;;14.20;99.90;;;;;;5073278;28;20194;-58
2022/09/26 02:51:01;;;;;;;9.53;2.20;;;14.20;99.90;;;;;;5053467;28;20176;-59
2022/09/26 02:53:52;;;;;;;9.27;1.77;;;14.20;99.90;;;;;;5088569;28;20172;-59
2022/09/26 02:56:28;;;;;;;10.13;2.03;;;14.30;99.90;;;;;;5072912;28;20180;-59
2022/09/26 02:59:40;;;;;;;8.50;1.30;;;14.30;99.90;;;;;;5072866;28;20286;-58
2022/09/26 03:02:18;;;;;;;3.40;1.33;;;14.20;99.90;;;;;;5072901;28;20172;-59
2022/09/26 03:05:00;;;;;;;6.30;1.53;;;14.30;99.90;;;;;;5073024;28;20176;-58
2022/09/26 03:07:45;;;;;;;5.93;1.65;;;14.30;99.90;;;;;;5072842;28;20214;-58
2022/09/26 03:10:13;;;;;;;8.10;1.40;;;14.40;99.90;;;;;;5072545;28;20569;-59
2022/09/26 03:12:41;;;;;;;7.53;1.60;;;14.40;99.90;;;;;;5072869;28;20183;-58
2022/09/26 03:15:08;;;;;;;8.80;1.45;;;14.40;99.90;;;;;;5072517;28;20226;-59
2022/09/26 03:17:36;;;;;;;6.75;1.60;;;14.40;99.90;;;;;;5072400;28;20164;-58
2022/09/26 03:20:10;;;;;;;6.75;1.50;;;14.50;99.90;;;;;;5072570;28;20176;-58
2022/09/26 03:22:38;;;;;;;5.68;1.17;;;14.50;99.90;;;;;;5072386;28;20692;-58
2022/09/26 03:25:05;;;;;;;9.02;1.63;;;14.70;99.90;;;;;;5072260;28;20187;-58
2022/09/26 03:27:32;;;;;;;10.47;1.60;;;14.50;99.90;;;;;;5072354;28;20639;-58
2022/09/26 03:29:58;;;;;;;13.10;2.00;;;14.60;99.90;;;;;;5072354;28;20231;-59
2022/09/26 03:32:24;;;;;;;14.00;1.37;;;14.60;99.90;;;;;;5072314;28;20185;-58
2022/09/26 03:34:50;;;;;;;8.20;1.55;;;14.60;99.90;;;;;;5072115;28;20173;-58
2022/09/26 03:37:16;;;;;;;12.25;1.38;;;14.60;99.90;;;;;;5072952;28;20737;-58
2022/09/26 03:39:43;;;;;;;10.05;1.85;;;14.70;99.90;;;;;;5080557;28;20200;-58
2022/09/26 03:42:09;;;;;;;7.70;1.80;;;14.70;99.90;;;;;;5092312;28;20168;-59
2022/09/26 03:44:35;;;;;;;11.53;1.97;;;14.80;99.90;;;;;;5092296;28;20168;-58
2022/09/26 03:47:00;;;;;;;12.00;1.83;;;14.70;99.90;;;;;;5092213;28;20225;-58
2022/09/26 03:49:27;;;;;;;13.30;1.60;;;;;;;;;;5092222;28;20184;-58
2022/09/26 03:51:53;;;;;;;11.15;2.10;;;14.80;99.90;;;;;;5092111;28;20215;-59
2022/09/26 03:54:18;;;;;;;12.63;1.92;;;14.80;99.90;;;;;;5092187;28;20200;-58
2022/09/26 03:56:44;;;;;;;11.40;1.73;;;14.80;99.90;;;;;;5091984;28;20243;-58
2022/09/26 03:59:10;;;;;;;15.57;2.15;;;14.80;99.90;;;;;;5091929;28;20211;-58
2022/09/26 04:01:35;;;;;;;13.23;2.03;;;14.80;99.90;;;;;;5091987;28;20164;-58
2022/09/26 04:04:01;;;;;;;7.38;2.20;;;14.80;99.90;;;;;;5091968;28;20534;-58
2022/09/26 04:06:27;;;;;;;9.43;2.03;;;14.90;99.90;;;;;;5091926;28;20172;-59
2022/09/26 04:08:53;;;;;;;7.90;1.83;;;14.70;99.90;;;;;;5091762;28;20172;-58
2022/09/26 04:11:21;;;;;;;10.70;1.90;;;14.80;99.90;;;;;;5091784;28;20232;-58
2022/09/26 04:13:48;;;;;;;12.63;1.98;;;14.80;99.90;;;;;;5091875;28;20183;-58
2022/09/26 04:16:13;;;;;;;12.50;2.15;;;15.30;99.90;;;;;;5107415;28;20176;-58
2022/09/26 04:18:39;;;;;;;12.57;2.42;;;14.80;99.90;;;;;;5091631;28;20215;-58
2022/09/26 04:21:11;;;;;;;12.90;2.53;;;14.90;99.90;;;;;;5091666;28;20200;-58
2022/09/26 04:23:39;;;;;;;12.65;2.10;;;14.90;99.90;;;;;;5091978;28;20180;-58
2022/09/26 04:26:07;;;;;;;17.38;2.60;;;14.90;99.90;;;;;;5091692;28;20176;-58
2022/09/26 04:28:34;;;;;;;9.50;2.47;;;14.70;99.90;;;;;;5091674;28;20178;-58
2022/09/26 04:31:01;;;;;;;10.00;2.35;;;14.90;99.90;;;;;;5091402;28;20180;-58
2022/09/26 04:33:27;;;;;;;9.35;1.77;;;14.80;99.90;;;;;;5091396;28;20181;-58
2022/09/26 04:35:53;;;;;;;10.88;2.65;;;14.90;99.90;;;;;;5091674;28;20172;-59
2022/09/26 04:38:19;;;;;;;8.57;2.17;;;14.80;99.90;;;;;;5091021;28;20219;-58
2022/09/26 04:40:45;;;;;;;13.32;2.70;;;14.80;99.90;;;;;;5091260;28;20175;-58
2022/09/26 04:43:11;;;;;;;19.77;2.90;;;14.70;99.90;;;;;;5091243;28;20607;-58
2022/09/26 04:45:41;;;;;;;16.48;3.13;;;14.70;99.90;;;;;;5090892;28;20172;-58
2022/09/26 04:48:09;;;;;;;13.93;3.22;;;14.60;99.90;;;;;;5091275;28;20249;-58
2022/09/26 04:50:34;;;;;;;13.38;3.10;;;14.50;99.90;;;;;;5091170;28;20160;-58
2022/09/26 04:53:00;;;;;;;11.00;2.33;;;14.40;99.90;;;;;;5106897;28;20661;-59
2022/09/26 04:55:26;;;;;;;18.50;2.40;;;14.40;99.90;;;;;;5091234;28;20516;-58
2022/09/26 04:57:52;;;;;;;8.52;2.15;;;14.20;99.90;;;;;;5090953;28;20215;-58
2022/09/26 05:00:17;;;;;;;9.13;2.00;;;14.30;99.90;;;;;;5091151;28;20163;-58
2022/09/26 05:02:46;;;;;;;7.60;1.98;;;14.20;99.90;;;;;;5090982;28;20229;-57
2022/09/26 05:05:12;;;;;;;12.10;2.17;;;14.20;99.90;;;;;;5091265;28;20229;-57
2022/09/26 05:07:42;;;;;;;11.43;2.30;;;14.20;99.90;;;;;;5091324;28;20255;-56
2022/09/26 05:10:11;;;;;;;10.07;1.97;;;14.20;99.90;;;;;;5091101;28;20220;-57
2022/09/26 05:12:38;;;;;;;14.43;2.50;;;14.20;99.90;;;;;;5091026;28;20692;-57
2022/09/26 05:15:07;;;;;;;7.45;2.35;;;14.20;99.90;;;;;;5090934;28;20226;-57
2022/09/26 05:17:34;;;;;;;9.93;1.80;;;14.40;99.90;;;;;;5090863;28;20171;-57
2022/09/26 05:20:00;;;;;;;9.77;1.92;;;14.30;99.90;;;;;;5090899;28;20183;-57
2022/09/26 05:22:30;;;;;;;12.93;2.10;;;14.20;99.90;;;;;;5090932;28;20168;-57
2022/09/26 05:27:40;;;;;;;4.50;1.75;;;14.30;99.90;;;;;;5090795;28;20226;-57
2022/09/26 05:30:06;;;;;;;8.75;1.90;;;14.30;99.90;;;;;;5090781;28;20245;-57
2022/09/26 05:32:33;;;;;;;11.55;2.40;;;14.40;99.90;;;;;;5090812;28;20662;-57
2022/09/26 05:34:58;;;;;;;11.27;2.00;;;14.30;99.90;;;;;;5091009;28;20172;-57
2022/09/26 05:37:24;;;;;;;7.80;1.55;;;14.30;99.90;;;;;;5090706;28;20651;-57
2022/09/26 05:42:35;;;;;;;7.22;1.80;;;14.20;99.90;;;;;;5076995;28;20229;-57
2022/09/26 05:45:02;;;;;;;4.20;1.45;;;14.30;99.90;;;;;;5089696;28;20293;-57
2022/09/26 05:47:31;;;;;;;5.60;1.63;;;14.30;99.90;;;;;;5090624;28;20172;-58
2022/09/26 05:49:56;;;;;;;7.78;1.70;;;14.10;99.90;;;;;;5090429;28;20255;-57
2022/09/26 05:52:22;;;;;;;6.95;1.63;;;14.40;99.90;;;;;;5090647;28;20689;-57
2022/09/26 05:54:48;;;;;;;9.55;1.98;;;14.30;99.90;;;;;;5090534;28;20233;-58
2022/09/26 05:57:14;;;;;;;9.63;1.83;;;14.30;99.90;;;;;;5091357;28;20653;-57
2022/09/26 05:59:40;;;;;;;8.80;1.70;;;14.20;99.90;;;;;;5094399;28;20218;-57
2022/09/26 06:02:05;;;;;;;11.75;1.65;;;14.00;99.90;;;;;;5094194;28;20168;-58
2022/09/26 06:04:31;;;;;;;12.52;1.95;;;14.00;99.90;;;;;;5094179;28;20193;-57
2022/09/26 06:06:57;;;;;;;12.03;2.17;;;14.00;99.90;;;;;;5094283;28;20175;-57
2022/09/26 06:09:22;;;;;;;9.93;1.95;;;14.00;99.90;;;;;;5094014;28;20528;-58
2022/09/26 06:11:48;;;;;;;10.63;2.42;;;;;;;;;;5094112;28;20180;-58
2022/09/26 06:14:14;;;;;;;13.65;2.13;;;13.90;99.90;;;;;;5093916;28;20706;-58
2022/09/26 06:16:39;;;;;;;15.68;2.42;;;13.90;99.90;;;;;;5093894;28;20180;-57
2022/09/26 06:19:05;;;;;;;18.37;2.90;;;13.80;99.90;;;;;;5093866;28;20303;-58
2022/09/26 06:21:31;;;;;;;10.07;2.00;;;13.90;99.90;;;;;;5093768;28;20684;-58
2022/09/26 06:23:56;;;;;;;18.48;2.40;;;13.80;99.90;;;;;;5093715;28;20184;-58
2022/09/26 06:26:24;;;;;;;12.77;2.90;;;13.80;99.90;;;;;;5093736;28;20176;-58
2022/09/26 06:28:58;;;;;;;18.03;3.00;;;13.80;99.90;;;;;;5093661;28;20202;-58
2022/09/26 06:31:25;;;;;;;18.07;2.83;;;13.70;99.90;;;;;;5093665;28;20172;-58
2022/09/26 06:33:52;;;;;;;21.57;2.87;;;13.70;99.90;;;;;;5093620;28;20203;-58
2022/09/26 06:36:18;;;;;;;19.10;3.53;;;13.70;99.90;;;;;;5093465;28;20172;-58
2022/09/26 06:38:44;;;;;;;16.27;2.40;;;13.80;99.90;;;;;;5093293;28;20621;-58
2022/09/26 06:41:09;;;;;;;20.60;2.90;;;13.70;99.90;;;;;;5093617;28;20182;-57
2022/09/26 06:43:35;;;;;;;19.70;3.30;;;13.70;99.90;;;;;;5093388;28;20168;-57
2022/09/26 06:46:01;;;;;;;20.23;2.87;;;13.70;99.90;;;;;;5093253;28;20199;-57
2022/09/26 06:48:27;;;;;;;18.90;2.92;;;13.70;99.90;;;;;;5093273;28;20172;-58
2022/09/26 06:50:55;;;;;;;21.97;2.93;;;13.40;99.90;;;;;;5093400;28;20175;-58
2022/09/26 06:53:21;;;;;;;16.77;3.13;;;13.60;99.90;;;;;;5093426;28;20168;-58
2022/09/26 06:55:47;;;;;;;21.70;2.97;;;13.60;99.90;;;;;;5093105;28;20582;-58
2022/09/26 06:58:13;;;;;;;16.90;2.87;;;13.60;99.90;;;;;;5093114;28;20566;-58
2022/09/26 07:00:39;;;;;;;24.03;3.10;;;13.60;99.90;;;;;;5093178;28;20176;-57
2022/09/26 07:03:05;;;;;;;22.23;4.20;;;13.60;99.90;;;;;;5093092;28;20232;-57
2022/09/26 07:05:31;;;;;;;18.10;2.97;;;13.50;99.90;;;;;;5092801;28;20577;-58
2022/09/26 07:07:57;;;;;;;25.75;3.30;;;13.50;99.90;;;;;;5092699;28;20335;-58
2022/09/26 07:10:23;;;;;;;16.65;2.60;;;13.80;99.90;;;;;;5092837;28;20657;-57
2022/09/26 07:12:49;;;;;;;26.53;3.43;;;13.60;99.90;;;;;;5092699;28;20262;-58
2022/09/26 07:15:17;;;;;;;31.80;3.28;;;13.60;99.90;;;;;;5092716;28;20198;-58
2022/09/26 07:17:44;;;;;;;19.92;3.22;;;13.70;99.90;;;;;;5092756;28;20179;-58
2022/09/26 07:20:12;;;;;;;21.23;3.45;;;13.80;99.90;;;;;;5092639;28;20180;-59
2022/09/26 07:22:38;;;;;;;21.60;3.70;;;13.90;99.90;;;;;;5092791;28;20575;-58
2022/09/26 07:25:04;;;;;;;28.90;3.80;;;14.00;99.90;;;;;;5108111;28;20186;-59
2022/09/26 07:27:30;;;;;;;25.73;3.42;;;14.20;99.90;;;;;;5092429;28;20168;-58
2022/09/26 07:29:57;;;;;;;19.77;3.33;;;14.20;99.90;;;;;;5092665;28;20171;-58
2022/09/26 07:32:23;;;;;;;21.00;3.33;;;14.30;99.90;;;;;;5092468;28;20176;-58
2022/09/26 07:34:49;;;;;;;16.90;3.25;;;14.30;99.90;;;;;;5092540;28;20163;-58
2022/09/26 07:37:16;;;;;;;20.35;3.30;;;14.20;99.90;;;;;;5092455;28;20458;-58
2022/09/26 07:39:42;;;;;;;20.05;2.88;;;14.20;99.90;;;;;;5092301;28;20211;-58
2022/09/26 07:42:08;;;;;;;21.88;3.08;;;14.20;99.90;;;;;;5092037;28;20178;-58
2022/09/26 07:44:34;;;;;;;24.17;3.42;;;14.20;99.90;;;;;;5092142;28;20184;-58
2022/09/26 07:52:29;;;;;;;17.10;3.45;;;14.50;99.90;;;;;;5092060;28;20178;-58
2022/09/26 07:54:55;;;;;;;25.08;4.13;;;14.30;99.90;;;;;;5091956;28;20534;-58
2022/09/26 07:57:20;;;;;;;24.23;3.90;;;14.40;99.90;;;;;;5091937;28;20164;-58
2022/09/26 07:59:48;;;;;;;32.72;4.57;;;14.40;99.90;;;;;;5091786;28;20207;-58
2022/09/26 08:02:27;;;;;;;22.98;3.80;;;14.70;99.90;;;;;;5092114;28;20231;-58
2022/09/26 08:04:53;;;;;;;39.25;5.68;;;14.50;99.90;;;;;;5091823;28;20646;-58
2022/09/26 08:07:20;;;;;;;24.85;3.88;;;14.50;99.90;;;;;;5107346;28;20266;-58
2022/09/26 08:09:46;;;;;;;28.48;4.60;;;14.60;99.90;;;;;;5091763;28;20176;-58
2022/09/26 08:12:13;;;;;;;29.40;5.40;;;14.50;99.90;;;;;;5091725;28;20238;-58
2022/09/26 08:14:39;;;;;;;30.52;5.25;;;14.40;99.90;;;;;;5091655;28;20178;-58
2022/09/26 08:17:04;;;;;;;36.08;5.13;;;14.40;99.90;;;;;;5091581;28;20168;-58
2022/09/26 08:19:30;;;;;;;36.15;5.47;;;14.30;99.90;;;;;;5091090;28;20269;-58
2022/09/26 08:21:57;;;;;;;33.35;5.35;;;14.40;99.90;;;;;;5091334;28;20251;-58
2022/09/26 08:24:23;;;;;;;33.28;5.28;;;14.40;99.90;;;;;;5091501;28;20176;-59
2022/09/26 08:26:49;;;;;;;33.00;5.60;;;14.50;99.90;;;;;;5091281;28;20183;-58
2022/09/26 08:29:15;;;;;;;34.33;6.15;;;14.50;99.90;;;;;;5091550;28;20175;-58
2022/09/26 08:31:40;;;;;;;30.50;4.95;;;14.50;99.90;;;;;;5091715;28;20225;-59
2022/09/26 08:34:06;;;;;;;32.80;5.15;;;14.50;99.90;;;;;;5091471;28;20171;-58
2022/09/26 08:36:35;;;;;;;33.80;5.75;;;14.50;99.90;;;;;;5091488;28;20175;-58
2022/09/26 08:39:02;;;;;;;34.28;5.75;;;14.50;99.90;;;;;;5091036;28;20269;-58
2022/09/26 08:41:56;;;;;;;32.17;4.68;;;14.50;99.90;;;;;;5091110;28;20196;-58
2022/09/26 08:44:45;;;;;;;32.90;5.55;;;14.40;99.90;;;;;;5091087;28;20691;-58
2022/09/26 08:47:20;;;;;;;27.40;5.10;;;14.60;99.90;;;;;;5091121;28;20213;-58
2022/09/26 08:50:01;;;;;;;29.38;5.13;;;14.60;99.90;;;;;;5091227;28;20160;-58
2022/09/26 08:52:40;;;;;;;37.47;5.75;;;14.60;99.90;;;;;;5091269;28;20202;-58
2022/09/26 08:55:19;;;;;;;33.83;4.80;;;14.60;99.90;;;;;;5091223;28;20258;-58
2022/09/26 08:57:59;;;;;;;34.22;5.47;;;14.60;99.90;;;;;;5091055;28;20178;-58
2022/09/26 09:00:30;;;;;;;30.30;4.88;;;14.70;99.90;;;;;;5091360;28;20176;-58
2022/09/26 09:03:04;;;;;;;28.17;5.68;;;14.60;99.90;;;;;;5091144;28;20202;-58
2022/09/26 09:05:39;;;;;;;30.42;4.88;;;14.80;99.90;;;;;;5091107;28;20182;-58
2022/09/26 09:08:24;;;;;;;30.08;5.28;;;15.10;99.90;;;;;;5091197;28;20665;-58
2022/09/26 09:10:55;;;;;;;26.30;5.00;;;15.00;99.90;;;;;;5091213;28;20206;-58
2022/09/26 09:13:51;;;;;;;30.33;5.20;;;15.00;99.90;;;;;;5106642;28;20186;-58
2022/09/26 09:16:59;;;;;;;43.97;5.57;;;14.80;99.90;;;;;;5090969;28;20171;-58
2022/09/26 09:19:31;;;;;;;29.55;5.07;;;15.20;99.90;;;;;;5090869;28;20287;-58
2022/09/26 09:22:24;;;;;;;27.60;4.93;;;15.10;99.90;;;;;;5091045;28;20168;-58
2022/09/26 09:25:04;;;;;;;39.17;4.95;;;15.30;99.90;;;;;;5090885;28;20180;-58
2022/09/26 09:27:57;;;;;;;31.25;5.32;;;15.50;99.90;;;;;;5090992;28;20209;-58
2022/09/26 09:30:23;;;;;;;26.50;5.30;;;15.50;99.90;;;;;;5090921;28;20168;-58
2022/09/26 09:32:57;;;;;;;27.85;4.35;;;15.80;99.90;;;;;;5094311;28;20168;-58
2022/09/26 09:35:40;;;;;;;26.50;4.97;;;16.10;99.90;;;;;;5095083;28;20179;-56
2022/09/26 09:38:11;;;;;;;31.10;5.85;;;17.00;99.90;;;;;;5094294;28;20781;-57
2022/09/26 09:41:17;;;;;;;31.58;5.55;;;17.10;99.90;;;;;;5094627;28;20215;-57
2022/09/26 09:43:48;;;;;;;27.10;5.25;;;17.60;99.90;;;;;;5094058;28;20233;-57
2022/09/26 09:46:26;;;;;;;29.48;5.32;;;17.50;99.90;;;;;;5094356;28;20254;-57
2022/09/26 09:48:58;;;;;;;23.50;4.53;;;18.00;99.90;;;;;;5094503;28;20567;-57
2022/09/26 09:51:39;;;;;;;17.58;3.72;;;17.90;99.90;;;;;;5094380;28;20590;-57
2022/09/26 09:54:25;;;;;;;23.48;4.25;;;19.80;99.90;;;;;;5086542;28;20175;-57
2022/09/26 09:57:02;;;;;;;14.88;3.35;;;19.90;99.90;;;;;;5074275;28;20180;-57
2022/09/26 09:59:46;;;;;;;17.27;3.63;;;19.50;99.90;;;;;;5086798;28;20210;-57
2022/09/26 10:02:30;;;;;;;13.70;3.05;;;18.50;99.90;;;;;;5094062;28;20176;-56
2022/09/26 10:05:17;;;;;;;16.88;3.50;;;18.80;99.90;;;;;;5094097;28;20164;-57
2022/09/26 10:07:44;;;;;;;10.52;3.00;;;19.30;99.90;;;;;;5093920;28;20171;-57
2022/09/26 10:10:20;;;;;;;15.48;3.33;;;20.50;99.90;;;;;;5093969;28;20575;-57
2022/09/26 10:12:49;;;;;;;15.85;3.25;;;19.90;99.90;;;;;;5092697;28;20266;-57
2022/09/26 10:15:24;;;;;;;13.15;3.15;;;21.30;99.90;;;;;;5093853;28;20635;-56
2022/09/26 10:18:04;;;;;;;18.23;3.40;;;21.30;99.90;;;;;;5093769;28;20249;-57
2022/09/26 10:20:38;;;;;;;16.88;3.17;;;19.70;99.90;;;;;;5093720;28;20181;-58
2022/09/26 10:23:30;;;;;;;18.13;3.33;;;18.80;99.90;;;;;;5093506;28;20626;-57
2022/09/26 10:26:02;;;;;;;10.68;3.25;;;18.60;99.90;;;;;;5093422;28;20284;-57
2022/09/26 10:28:55;;;;;;;10.45;2.40;;;18.90;99.90;;;;;;5094010;28;20188;-57
2022/09/26 10:31:29;;;;;;;7.53;2.13;;;19.10;99.90;;;;;;5092503;28;20183;-57
2022/09/26 10:33:59;;;;;;;11.18;2.40;;;20.60;99.90;;;;;;5093377;28;20182;-57
2022/09/26 10:36:39;;;;;;;12.23;2.60;;;21.10;99.90;;;;;;5093575;28;20211;-57
2022/09/26 10:41:57;;;;;;;7.22;2.05;;;19.70;99.90;;;;;;5093329;28;20225;-56
2022/09/26 10:44:26;;;;;;;10.35;2.22;;;18.70;99.90;;;;;;5092415;28;20187;-57
2022/09/26 10:46:56;;;;;;;10.40;1.98;;;18.50;99.90;;;;;;5092964;28;20216;-57
2022/09/26 10:49:30;;;;;;;5.47;1.65;;;18.50;99.90;;;;;;5093221;28;20168;-57
2022/09/26 10:52:07;;;;;;;7.45;1.90;;;19.80;99.90;;;;;;5093212;28;20175;-57
2022/09/26 10:54:52;;;;;;;8.73;1.90;;;18.30;99.90;;;;;;5092828;28;20541;-57
2022/09/26 10:57:23;;;;;;;12.00;1.98;;;18.40;99.90;;;;;;5093250;28;20190;-57
2022/09/26 10:59:50;;;;;;;9.40;1.67;;;18.40;99.90;;;;;;5108678;28;20215;-57
2022/09/26 11:02:20;;;;;;;10.57;2.33;;;19.10;99.90;;;;;;5091955;28;20168;-57
2022/09/26 11:07:36;;;;;;;7.35;1.80;;;19.10;99.90;;;;;;5092722;28;20175;-57
2022/09/26 11:10:09;;;;;;;9.82;1.88;;;19.20;99.90;;;;;;5092724;28;20418;-57
2022/09/26 11:12:38;;;;;;;7.88;1.80;;;18.40;99.90;;;;;;5092780;28;20164;-57
2022/09/26 11:15:12;;;;;;;8.13;1.70;;;18.30;99.90;;;;;;5092685;28;20179;-58
2022/09/26 11:17:43;;;;;;;5.95;1.65;;;19.50;99.90;;;;;;5092639;28;20194;-58
2022/09/26 11:20:27;;;;;;;10.48;2.13;;;19.30;99.90;;;;;;5092686;28;20218;-57
2022/09/26 11:23:19;;;;;;;10.95;1.63;;;18.30;99.90;;;;;;5092339;28;20739;-58
2022/09/26 11:26:32;;;;;;;8.10;1.60;;;17.70;99.90;;;;;;5092463;28;20195;-57
2022/09/26 11:29:27;;;;;;;8.07;1.52;;;17.10;99.90;;;;;;5080224;28;20211;-57
2022/09/26 11:31:52;;;;;;;10.52;2.00;;;17.30;99.90;;;;;;5089461;28;20184;-58
2022/09/26 11:34:28;;;;;;;9.20;1.85;;;17.40;99.90;;;;;;5092192;28;20226;-57
2022/09/26 11:37:00;;;;;;;11.02;1.80;;;18.10;99.90;;;;;;5092164;28;20168;-57
2022/09/26 11:39:31;;;;;;;9.05;1.85;;;18.30;99.90;;;;;;5092247;28;20223;-57
2022/09/26 11:42:25;;;;;;;9.30;1.50;;;19.60;99.90;;;;;;5092197;28;20164;-57
2022/09/26 11:44:58;;;;;;;6.70;1.65;;;21.10;99.90;;;;;;5088753;28;20190;-57
2022/09/26 11:47:39;;;;;;;7.68;1.60;;;22.60;99.90;;;;;;5092012;28;20171;-57
2022/09/26 11:50:14;;;;;;;7.88;1.40;;;21.70;99.90;;;;;;5092038;28;20729;-57
2022/09/26 11:53:25;;;;;;;5.22;1.52;;;20.70;99.90;;;;;;5091948;28;20175;-57
2022/09/26 11:56:02;;;;;;;9.20;1.70;;;19.80;99.90;;;;;;5090950;28;20172;-57
2022/09/26 11:58:38;;;;;;;9.20;1.42;;;18.80;99.90;;;;;;5091877;28;20199;-57
2022/09/26 12:01:04;;;;;;;6.78;0.98;;;17.70;99.90;;;;;;5091733;28;20183;-57
2022/09/26 12:03:54;;;;;;;5.68;1.63;;;17.30;99.90;;;;;;5091789;28;20170;-58
2022/09/26 12:06:32;;;;;;;9.07;1.50;;;16.80;99.90;;;;;;5089481;28;20179;-57
2022/09/26 12:09:27;;;;;;;8.50;1.70;;;16.40;99.90;;;;;;5095717;28;20201;-58
2022/09/26 12:12:45;;;;;;;7.97;1.17;;;16.40;99.90;;;;;;5091546;28;20176;-57
2022/09/26 12:15:32;;;;;;;10.32;1.73;;;16.30;99.90;;;;;;5079026;28;20256;-58
2022/09/26 12:18:33;;;;;;;8.93;1.70;;;16.70;99.90;;;;;;5091445;28;20168;-57
2022/09/26 12:21:17;;;;;;;6.55;1.75;;;17.60;99.90;;;;;;5068824;28;20171;-56
2022/09/26 12:23:47;;;;;;;7.82;1.35;;;18.90;99.90;;;;;;5089552;28;20194;-57
2022/09/26 12:26:33;;;;;;;6.93;1.55;;;21.20;99.90;;;;;;5091338;28;20168;-57
2022/09/26 12:29:13;;;;;;;6.00;1.42;;;23.00;99.90;;;;;;5091460;28;20171;-58
2022/09/26 12:32:13;;;;;;;10.23;1.83;;;21.60;99.90;;;;;;5091298;28;20634;-58
2022/09/26 12:35:09;;;;;;;9.27;1.75;;;20.40;99.90;;;;;;5091219;28;20172;-58
2022/09/26 12:37:56;;;;;;;9.93;1.20;;;19.70;99.90;;;;;;5091174;28;20207;-59
2022/09/26 12:40:52;;;;;;;9.57;1.40;;;19.90;99.90;;;;;;5091418;28;20192;-58
2022/09/26 12:43:33;;;;;;;6.38;1.20;;;21.20;99.90;;;;;;5091465;28;20191;-58
2022/09/26 12:46:19;;;;;;;5.47;1.42;;;21.50;99.90;;;;;;5091292;28;20191;-58
2022/09/26 12:48:54;;;;;;;9.23;1.80;;;21.00;99.90;;;;;;5106667;28;20190;-57
2022/09/26 12:51:57;;;;;;;12.27;1.52;;;20.30;99.90;;;;;;5091025;28;20171;-57
2022/09/26 12:54:25;;;;;;;7.22;1.60;;;19.70;99.90;;;;;;5079408;28;20642;-57
2022/09/26 12:57:12;;;;;;;9.10;2.00;;;19.10;99.90;;;;;;5091003;28;20168;-57
2022/09/26 13:00:11;;;;;;;9.55;1.52;;;18.80;99.90;;;;;;5090680;28;20222;-58
2022/09/26 13:02:46;;;;;;;6.15;1.58;;;19.30;99.90;;;;;;5090910;28;20268;-58
2022/09/26 13:05:40;;;;;;;3.78;0.98;;;20.10;99.90;;;;;;5090861;28;20257;-58
2022/09/26 13:08:42;;;;;;;7.55;1.33;;;21.10;99.90;;;;;;5094916;28;20171;-58
2022/09/26 13:11:14;;;;;;;11.13;1.80;;;20.60;99.90;;;;;;5094976;28;20185;-58
2022/09/26 13:14:12;;;;;;;7.93;1.80;;;19.10;99.90;;;;;;5095158;28;20281;-57
2022/09/26 13:16:53;;;;;;;8.40;1.38;;;20.50;99.90;;;;;;5095257;28;20534;-58
2022/09/26 13:19:57;;;;;;;10.38;1.70;;;21.30;99.90;;;;;;5095010;28;20211;-58
2022/09/26 13:22:40;;;;;;;14.70;1.55;;;22.60;99.90;;;;;;5090346;28;20176;-58
2022/09/26 13:25:17;;;;;;;13.93;1.77;;;23.50;99.90;;;;;;5094771;28;20188;-59
2022/09/26 13:28:03;;;;;;;11.45;1.55;;;24.20;99.90;;;;;;5095090;28;20293;-58
2022/09/26 13:30:34;;;;;;;5.57;1.13;;;25.40;99.90;;;;;;5094873;28;20168;-58
2022/09/26 13:33:19;;;;;;;7.72;1.27;;;23.90;99.90;;;;;;5094688;28;20207;-57